Time;durP1;ratioP1;P1;durP2;ratioP2;P2;SDS_P1;SDS_P2;PMS_P1;PMS_P2;Temp;Humidity;BMP_temperature;BMP_pressure;BME280_temperature;BME280_humidity;BME280_pressure;Samples;Min_cycle;Max_cycle;Signal;HPM_P1;HPM_P2
2022/02/20 00:04:50;;;;;;;22.23;5.67;;;;;;;2.38;74.81;99992.75;3467401;84;31776;-90
2022/02/20 00:09:50;;;;;;;18.27;5.63;;;;;;;2.38;74.91;99998.98;3445339;84;98449;-87
2022/02/20 00:14:51;;;;;;;18.97;5.37;;;;;;;2.40;74.84;99986.44;3474353;83;98735;-88
2022/02/20 00:19:52;;;;;;;17.23;5.33;;;;;;;2.41;74.93;99983.37;3463832;84;98399;-90
2022/02/20 00:24:55;;;;;;;12.97;4.80;;;;;;;2.43;74.93;99972.98;3474248;83;98860;-88
2022/02/20 00:29:56;;;;;;;16.27;5.30;;;;;;;2.45;74.93;99961.22;3455382;84;98560;-88
2022/02/20 00:34:57;;;;;;;16.03;4.70;;;;;;;2.45;74.89;99956.33;3465556;84;98437;-90
2022/02/20 00:39:57;;;;;;;17.60;5.53;;;;;;;2.45;75.04;99943.56;3441657;83;98587;-87
2022/02/20 00:44:58;;;;;;;16.53;4.53;;;;;;;2.46;75.03;99939.71;3472550;83;98382;-89
2022/02/20 00:49:59;;;;;;;13.50;4.45;;;;;;;2.45;75.04;99935.41;3464746;83;98424;-88
2022/02/20 00:55:00;;;;;;;15.85;5.03;;;;;;;2.45;75.10;99934.05;3470868;83;98982;-88
2022/02/20 01:00:04;;;;;;;16.57;4.60;;;;;;;2.44;75.19;99922.97;3463974;83;98921;-88
2022/02/20 01:05:07;;;;;;;14.07;3.97;;;;;;;2.44;75.25;99920.81;3471038;83;99020;-88
2022/02/20 01:10:11;;;;;;;12.93;4.00;;;;;;;2.44;75.42;99911.30;3460921;83;98473;-88
2022/02/20 01:15:13;;;;;;;16.43;4.33;;;;;;;2.44;75.33;99901.80;3469598;83;98870;-90
2022/02/20 01:20:14;;;;;;;11.18;3.55;;;;;;;2.46;75.56;99892.19;3467649;83;98672;-89
2022/02/20 01:25:15;;;;;;;13.37;4.07;;;;;;;2.51;75.53;99884.41;3471819;83;98957;-89
2022/02/20 01:30:16;;;;;;;14.73;3.97;;;;;;;2.53;75.52;99871.28;3419230;83;99071;-89
2022/02/20 01:35:17;;;;;;;13.00;3.97;;;;;;;2.60;75.51;99864.72;3398587;84;98932;-89
2022/02/20 01:40:18;;;;;;;15.03;3.47;;;;;;;2.65;75.42;99854.98;3453734;84;98248;-88
2022/02/20 01:45:19;;;;;;;16.60;3.27;;;;;;;2.72;75.56;99843.79;3450999;83;98820;-88
2022/02/20 01:50:21;;;;;;;12.10;3.80;;;;;;;2.77;75.50;99819.12;3423472;84;98691;-88
2022/02/20 01:55:22;;;;;;;12.20;3.53;;;;;;;2.83;75.34;99813.68;3447675;84;98954;-88
2022/02/20 02:00:24;;;;;;;10.00;2.62;;;;;;;2.91;75.33;99813.34;3421838;84;98891;-89
2022/02/20 02:05:26;;;;;;;14.53;3.50;;;;;;;2.95;75.41;99810.95;3427460;84;98905;-87
2022/02/20 02:10:27;;;;;;;15.43;3.53;;;;;;;2.99;75.40;99803.70;3442597;83;98244;-89
2022/02/20 02:15:29;;;;;;;16.57;3.73;;;;;;;3.03;75.43;99803.80;3444947;84;98690;-89
2022/02/20 02:20:30;;;;;;;12.47;3.42;;;;;;;3.05;75.52;99805.61;3440482;84;98660;-90
2022/02/20 02:25:33;;;;;;;16.10;3.40;;;;;;;3.08;75.76;99796.22;3446334;84;98913;-88
2022/02/20 02:30:34;;;;;;;10.68;3.10;;;;;;;3.15;75.85;99787.47;3462387;83;98818;-90
2022/02/20 02:35:35;;;;;;;11.90;3.63;;;;;;;3.19;76.06;99781.02;3464543;83;98905;-88
2022/02/20 02:40:36;;;;;;;11.27;2.90;;;;;;;3.23;76.89;99766.94;3460998;83;98025;-90
2022/02/20 02:45:37;;;;;;;14.07;4.20;;;;;;;3.27;77.48;99752.12;3470011;83;98654;-89
2022/02/20 02:50:38;;;;;;;8.33;2.37;;;;;;;3.29;78.09;99746.53;3459447;82;98424;-88
2022/02/20 02:55:49;;;;;;;8.77;2.23;;;;;;;3.34;78.37;99735.41;3469851;82;98906;-89
2022/02/20 03:00:52;;;;;;;10.33;2.53;;;;;;;3.37;78.64;99729.84;3463871;83;98295;-87
2022/02/20 03:05:57;;;;;;;7.40;2.17;;;;;;;3.40;78.64;99729.17;3466339;83;98964;-88
2022/02/20 03:10:56;;;;;;;10.18;2.35;;;;;;;3.42;78.95;99713.28;3467381;81;102620;-88
2022/02/20 03:16:01;;;;;;;11.73;2.40;;;;;;;3.46;79.20;99697.86;3451082;83;27214;-86
2022/02/20 03:21:06;;;;;;;11.28;2.83;;;;;;;3.49;79.34;99694.46;3462684;83;98739;-86
2022/02/20 03:26:07;;;;;;;10.50;2.30;;;;;;;3.50;79.54;99696.04;3471053;83;98592;-87
2022/02/20 03:31:08;;;;;;;6.33;2.13;;;;;;;3.54;79.47;99694.19;3446712;83;98582;-87
2022/02/20 03:36:09;;;;;;;7.73;2.37;;;;;;;3.56;79.33;99685.12;3473896;83;98304;-87
2022/02/20 03:41:09;;;;;;;7.13;2.50;;;;;;;3.57;79.41;99685.34;3463691;82;98586;-87
2022/02/20 03:46:10;;;;;;;11.20;2.40;;;;;;;3.59;79.48;99677.05;3476862;83;31606;-88
2022/02/20 03:51:11;;;;;;;8.73;2.83;;;;;;;3.61;79.88;99665.24;3461271;82;98502;-87
2022/02/20 03:56:13;;;;;;;9.23;2.37;;;;;;;3.64;80.02;99664.55;3466820;83;98356;-87
2022/02/20 04:01:14;;;;;;;6.63;2.30;;;;;;;3.65;80.33;99653.11;3456189;83;98506;-87
2022/02/20 04:06:15;;;;;;;11.07;3.47;;;;;;;3.66;80.39;99651.97;3469411;83;98366;-87
2022/02/20 04:11:16;;;;;;;8.27;2.37;;;;;;;3.67;80.52;99650.83;3463535;82;98601;-87
2022/02/20 04:16:16;;;;;;;9.20;2.17;;;;;;;3.65;80.84;99634.84;3480293;83;25883;-86
2022/02/20 04:21:17;;;;;;;7.40;2.90;;;;;;;3.60;81.29;99635.69;3459681;82;98148;-86
2022/02/20 04:26:18;;;;;;;9.70;2.73;;;;;;;3.56;81.49;99631.48;3469340;83;98143;-86
2022/02/20 04:31:20;;;;;;;14.47;2.40;;;;;;;3.52;81.84;99625.19;3464627;83;98445;-88
2022/02/20 04:36:21;;;;;;;17.70;3.63;;;;;;;3.46;83.03;99626.59;3475437;83;98903;-87
2022/02/20 04:41:22;;;;;;;8.27;2.00;;;;;;;3.33;84.14;99619.63;3403110;83;98400;-86
2022/02/20 04:46:22;;;;;;;10.33;2.30;;;;;;;3.03;86.87;99595.88;3407809;84;35468;-85
2022/02/20 04:51:23;;;;;;;8.90;2.23;;;;;;;3.03;86.87;99595.88;3395422;84;98397;-85
2022/02/20 04:56:24;;;;;;;11.90;3.33;;;;;;;2.94;87.63;99585.72;3398290;84;98612;-85
2022/02/20 05:01:25;;;;;;;8.77;2.03;;;;;;;2.87;88.54;99585.53;3472385;83;98787;-84
2022/02/20 05:06:27;;;;;;;8.70;2.65;;;;;;;2.79;89.29;99576.97;3480843;83;98345;-84
2022/02/20 05:11:28;;;;;;;12.10;2.70;;;;;;;2.75;89.74;99566.56;3463206;83;98435;-86
2022/02/20 05:16:31;;;;;;;9.17;3.23;;;;;;;2.73;90.04;99560.70;3481385;83;33488;-85
2022/02/20 05:21:32;;;;;;;9.53;2.62;;;;;;;2.73;90.32;99556.63;3428668;83;98237;-85
2022/02/20 05:26:33;;;;;;;11.40;2.80;;;;;;;2.72;90.60;99558.54;3415334;84;97478;-85
2022/02/20 05:31:34;;;;;;;7.93;2.77;;;;;;;2.72;91.80;99553.11;3460055;83;98475;-83
2022/02/20 05:36:34;;;;;;;8.33;2.93;;;;;;;2.72;91.38;99547.67;3469709;83;98743;-85
2022/02/20 05:41:35;;;;;;;8.70;2.30;;;;;;;2.74;92.49;99544.03;3470231;83;99086;-84
2022/02/20 05:46:36;;;;;;;7.33;2.30;;;;;;;2.76;93.38;99541.78;3476297;83;32530;-85
2022/02/20 05:51:37;;;;;;;8.70;2.70;;;;;;;2.78;92.92;99536.00;3471504;83;98619;-85
2022/02/20 05:56:38;;;;;;;7.20;2.33;;;;;;;2.81;93.56;99529.86;3486569;83;98516;-85
2022/02/20 06:01:38;;;;;;;9.48;2.77;;;;;;;2.82;94.23;99527.36;3474274;83;98714;-85
2022/02/20 06:06:39;;;;;;;9.23;3.33;;;;;;;2.82;94.02;99517.85;3479592;83;98803;-85
2022/02/20 06:11:40;;;;;;;9.30;2.77;;;;;;;2.82;95.13;99515.13;3463640;83;98365;-85
2022/02/20 06:16:41;;;;;;;9.87;2.90;;;;;;;2.82;94.68;99511.06;3466480;83;26524;-85
2022/02/20 06:21:42;;;;;;;12.70;3.67;;;;;;;2.82;94.86;99498.83;3463692;83;98900;-85
2022/02/20 06:26:43;;;;;;;12.37;3.10;;;;;;;2.84;95.24;99505.50;3470405;83;98426;-87
2022/02/20 06:31:43;;;;;;;9.63;2.80;;;;;;;2.84;95.83;99493.27;3463473;83;98819;-88
2022/02/20 06:36:44;;;;;;;9.70;2.93;;;;;;;2.85;95.74;99503.58;3479710;83;98288;-85
2022/02/20 06:41:45;;;;;;;14.30;4.10;;;;;;;2.85;95.90;99506.30;3475728;83;99060;-86
2022/02/20 06:46:46;;;;;;;8.40;3.07;;;;;;;2.85;96.04;99511.15;3470961;83;98568;-85
2022/02/20 06:51:47;;;;;;;8.00;3.53;;;;;;;2.86;96.69;99508.68;3474173;83;98417;-84
2022/02/20 06:56:48;;;;;;;8.83;3.40;;;;;;;2.86;96.42;99511.39;3475162;83;98241;-86
2022/02/20 07:01:49;;;;;;;10.67;3.50;;;;;;;2.89;97.29;99511.27;3476273;83;98557;-85
2022/02/20 07:06:50;;;;;;;9.77;3.33;;;;;;;2.87;97.68;99512.97;3463132;83;98847;-84
2022/02/20 07:11:51;;;;;;;8.30;3.50;;;;;;;2.88;97.01;99519.17;3467841;83;98344;-85
2022/02/20 07:16:52;;;;;;;6.75;3.65;;;;;;;2.87;97.95;99518.96;3471842;82;98552;-86
2022/02/20 07:21:52;;;;;;;10.57;3.60;;;;;;;2.86;98.02;99526.89;3482624;83;32349;-85
2022/02/20 07:26:53;;;;;;;9.03;4.00;;;;;;;2.83;97.94;99518.87;3471983;83;98647;-85
2022/02/20 07:31:54;;;;;;;8.67;4.07;;;;;;;2.83;98.34;99516.70;3455290;84;98575;-85
2022/02/20 07:36:55;;;;;;;11.38;5.40;;;;;;;2.85;98.46;99527.45;3442465;84;98561;-85
2022/02/20 07:41:56;;;;;;;11.13;4.40;;;;;;;2.84;98.93;99525.88;3453955;84;98866;-85
2022/02/20 07:46:57;;;;;;;9.93;4.13;;;;;;;2.87;99.20;99531.98;3448083;84;98575;-86
2022/02/20 07:51:58;;;;;;;11.47;5.50;;;;;;;2.89;99.36;99527.57;3449652;84;30067;-84
2022/02/20 07:56:59;;;;;;;9.83;4.60;;;;;;;2.93;99.79;99536.03;3441931;84;98669;-86
2022/02/20 08:02:00;;;;;;;9.90;4.20;;;;;;;2.95;99.91;99539.77;3447390;83;98465;-86
2022/02/20 08:07:04;;;;;;;12.50;4.27;;;;;;;3.00;99.69;99543.00;3447057;84;98314;-86
2022/02/20 08:12:04;;;;;;;9.23;4.63;;;;;;;3.05;99.63;99552.82;3453475;83;98834;-85
2022/02/20 08:17:05;;;;;;;8.97;3.87;;;;;;;3.09;99.59;99555.88;3447353;82;98625;-86
2022/02/20 08:22:06;;;;;;;7.20;4.17;;;;;;;3.12;99.48;99556.52;3479713;84;31683;-87
2022/02/20 08:27:07;;;;;;;9.33;4.70;;;;;;;3.19;99.98;99565.44;3466397;83;98317;-87
2022/02/20 08:32:08;;;;;;;8.10;3.40;;;;;;;3.23;99.45;99565.75;3495051;83;98655;-86
2022/02/20 08:37:09;;;;;;;8.37;3.83;;;;;;;3.27;99.79;99569.35;3486875;82;98692;-87
2022/02/20 08:42:10;;;;;;;6.57;4.00;;;;;;;3.32;99.22;99584.05;3502691;82;98320;-86
2022/02/20 08:47:11;;;;;;;7.15;3.72;;;;;;;3.39;99.38;99584.23;3491714;83;98367;-86
2022/02/20 08:52:12;;;;;;;6.33;3.50;;;;;;;3.43;99.25;99589.20;3502209;82;26444;-86
2022/02/20 08:57:13;;;;;;;5.90;3.20;;;;;;;3.48;99.03;99597.66;3481446;83;98589;-85
2022/02/20 09:02:14;;;;;;;8.63;3.30;;;;;;;3.53;98.97;99601.48;3413082;81;98606;-86
2022/02/20 09:07:15;;;;;;;8.37;3.80;;;;;;;3.59;99.00;99610.95;3419576;81;98839;-85
2022/02/20 09:12:16;;;;;;;5.70;3.00;;;;;;;3.63;98.77;99613.20;3487655;83;98874;-86
2022/02/20 09:17:17;;;;;;;6.47;3.23;;;;;;;3.62;98.68;99611.08;3476718;83;98374;-83
2022/02/20 09:22:18;;;;;;;6.30;3.00;;;;;;;3.67;98.77;99621.67;3489779;83;34854;-87
2022/02/20 09:27:19;;;;;;;8.70;3.73;;;;;;;3.74;98.79;99631.95;3473666;83;98315;-87
2022/02/20 09:32:22;;;;;;;5.67;2.97;;;;;;;3.77;98.49;99636.70;3471958;82;98559;-86
2022/02/20 09:37:22;;;;;;;8.20;4.13;;;;;;;3.85;98.56;99643.33;3471283;82;98896;-86
2022/02/20 09:42:24;;;;;;;10.73;4.27;;;;;;;3.88;98.26;99639.89;3472531;82;98794;-87
2022/02/20 09:47:30;;;;;;;9.77;4.70;;;;;;;3.92;98.21;99654.38;3463169;82;98850;-86
2022/02/20 09:52:31;;;;;;;9.20;4.58;;;;;;;3.93;98.23;99658.69;3457466;83;26318;-87
2022/02/20 09:57:32;;;;;;;6.87;3.43;;;;;;;4.00;98.18;99664.88;3476257;82;98558;-88
2022/02/20 10:02:40;;;;;;;8.83;4.20;;;;;;;4.04;97.94;99665.77;3463581;82;98460;-86
2022/02/20 10:07:42;;;;;;;9.20;4.78;;;;;;;4.07;97.80;99672.66;3448733;82;98320;-87
2022/02/20 10:12:45;;;;;;;9.40;4.65;;;;;;;4.11;97.73;99672.18;3476554;83;98896;-87
2022/02/20 10:17:46;;;;;;;9.77;4.47;;;;;;;4.14;97.43;99670.09;3467852;84;98339;-86
2022/02/20 10:22:47;;;;;;;10.33;4.87;;;;;;;4.21;97.50;99681.74;3446644;84;35505;-87
2022/02/20 10:27:51;;;;;;;11.70;4.77;;;;;;;4.30;97.17;99673.59;3458252;84;98496;-86
2022/02/20 10:33:15;;;;;;;12.00;5.00;;;;;;;4.35;96.36;99673.33;3471683;83;98390;-88
2022/02/20 10:38:21;;;;;;;12.65;4.55;;;;;;;4.40;96.33;99680.44;3461013;82;98670;-86
2022/02/20 10:43:31;;;;;;;9.35;4.12;;;;;;;4.44;95.98;99686.77;3480980;83;98912;-86
2022/02/20 10:48:38;;;;;;;14.00;5.03;;;;;;;4.47;95.70;99687.42;3467793;84;98909;-86
2022/02/20 10:53:42;;;;;;;10.60;4.07;;;;;;;4.55;95.46;99683.15;3461765;84;98820;-86
2022/02/20 10:58:55;;;;;;;6.65;3.60;;;;;;;4.64;95.15;99690.53;3457936;83;98730;-84
2022/02/20 11:04:08;;;;;;;6.37;3.30;;;;;;;4.71;94.88;99685.27;3456248;84;98361;-87
2022/02/20 11:09:09;;;;;;;8.10;3.33;;;;;;;4.75;94.70;99699.73;3458977;83;98673;-86
2022/02/20 11:14:14;;;;;;;6.67;2.77;;;;;;;4.79;94.79;99697.09;3446985;84;98340;-88
2022/02/20 11:19:18;;;;;;;8.35;2.92;;;;;;;4.79;94.31;99686.19;3457374;83;98670;-88
2022/02/20 11:24:20;;;;;;;4.87;2.70;;;;;;;4.74;94.17;99684.53;3478450;83;99026;-87
2022/02/20 11:29:22;;;;;;;6.30;2.50;;;;;;;4.72;94.13;99685.48;3469722;82;98446;-87
2022/02/20 11:34:25;;;;;;;3.57;2.13;;;;;;;4.72;93.93;99684.12;3493165;83;26917;-88
2022/02/20 11:39:28;;;;;;;4.40;2.33;;;;;;;4.76;93.82;99691.00;3483142;82;98624;-86
2022/02/20 11:44:47;;;;;;;5.20;2.57;;;;;;;4.78;93.63;99688.70;3472323;83;98864;-86
2022/02/20 11:49:49;;;;;;;7.67;3.77;;;;;;;4.77;93.64;99691.21;3484746;82;98547;-87
2022/02/20 11:54:58;;;;;;;8.77;4.33;;;;;;;4.77;93.28;99689.84;3477816;83;98557;-88
2022/02/20 12:00:13;;;;;;;5.37;2.87;;;;;;;4.77;93.22;99681.11;3470912;83;98601;-87
2022/02/20 12:05:14;;;;;;;5.20;2.33;;;;;;;4.81;93.05;99683.32;3474458;83;98755;-86
2022/02/20 12:10:29;;;;;;;5.95;2.70;;;;;;;4.89;93.01;99683.70;3475211;83;98222;-87
2022/02/20 12:15:41;;;;;;;4.07;2.40;;;;;;;4.92;92.47;99677.52;3471715;83;98261;-87
2022/02/20 12:20:59;;;;;;;6.45;2.62;;;;;;;4.95;92.15;99683.64;3470335;83;98478;-88
2022/02/20 12:26:07;;;;;;;6.20;2.80;;;;;;;4.98;92.05;99673.39;3478782;83;98663;-86
2022/02/20 12:31:17;;;;;;;7.15;3.55;;;;;;;4.98;91.67;99665.78;3471956;82;98622;-88
2022/02/20 12:36:25;;;;;;;8.17;3.90;;;;;;;5.05;91.48;99663.98;3464259;83;98394;-87
2022/02/20 12:41:27;;;;;;;7.13;3.40;;;;;;;5.09;91.60;99672.23;3474195;82;98304;-86
2022/02/20 12:46:28;;;;;;;11.00;3.83;;;;;;;5.13;91.35;99658.11;3488778;82;27912;-86
2022/02/20 12:51:29;;;;;;;7.60;3.83;;;;;;;5.17;90.63;99661.67;3476868;83;98349;-86
2022/02/20 12:56:30;;;;;;;7.77;3.00;;;;;;;5.21;90.72;99648.34;3463255;83;98432;-86
2022/02/20 13:01:34;;;;;;;4.23;2.27;;;;;;;5.29;90.14;99642.45;3477340;83;98734;-87
2022/02/20 13:06:39;;;;;;;5.28;2.45;;;;;;;5.33;89.43;99640.00;3481945;83;98732;-87
2022/02/20 13:11:40;;;;;;;4.60;2.45;;;;;;;5.40;89.08;99641.48;3477308;83;98580;-89
2022/02/20 13:16:53;;;;;;;4.83;2.33;;;;;;;5.46;88.59;99635.17;3488323;83;35376;-88
2022/02/20 13:21:53;;;;;;;6.45;2.85;;;;;;;5.55;88.18;99615.24;3493686;82;97216;-87
2022/02/20 13:27:00;;;;;;;6.87;2.80;;;;;;;5.61;88.05;99607.77;3454743;83;98518;-86
2022/02/20 13:32:01;;;;;;;10.05;4.00;;;;;;;5.68;88.04;99600.28;3486365;83;98209;-86
2022/02/20 13:37:13;;;;;;;9.10;4.20;;;;;;;5.75;87.95;99579.92;3480690;82;107527;-86
2022/02/20 13:42:14;;;;;;;10.30;4.43;;;;;;;5.83;87.69;99582.43;3490396;80;98292;-87
2022/02/20 13:47:16;;;;;;;8.60;3.33;;;;;;;5.88;87.82;99571.20;3478991;82;98608;-87
2022/02/20 13:52:25;;;;;;;7.83;3.40;;;;;;;5.93;87.77;99570.09;3492470;83;35410;-87
2022/02/20 13:57:27;;;;;;;7.77;3.50;;;;;;;5.97;87.81;99560.02;3482173;83;98510;-86
2022/02/20 14:02:33;;;;;;;8.80;3.33;;;;;;;6.01;87.74;99543.89;3435407;83;98553;-88
2022/02/20 14:07:42;;;;;;;8.47;3.33;;;;;;;6.03;87.28;99535.34;3418474;83;98444;-91
2022/02/20 14:12:45;;;;;;;9.58;3.72;;;;;;;6.03;87.36;99517.58;3403231;83;98313;-87
2022/02/20 14:18:00;;;;;;;9.20;3.98;;;;;;;6.03;87.66;99515.65;3333056;85;98509;-86
2022/02/20 14:23:22;;;;;;;10.35;4.90;;;;;;;6.06;87.67;99499.11;3461981;82;98446;-86
2022/02/20 14:28:29;;;;;;;10.72;5.10;;;;;;;6.09;87.74;99493.69;3484793;83;98482;-88
2022/02/20 14:33:35;;;;;;;12.55;5.08;;;;;;;6.13;88.09;99489.07;3497897;83;98348;-86
2022/02/20 14:38:39;;;;;;;15.80;5.90;;;;;;;6.14;88.43;99478.91;3473744;83;98817;-86
2022/02/20 14:43:43;;;;;;;9.08;4.47;;;;;;;6.12;89.18;99473.04;3502677;82;98919;-86
2022/02/20 14:48:44;;;;;;;11.73;4.72;;;;;;;6.08;89.62;99462.64;3495471;82;98421;-86
2022/02/20 14:53:46;;;;;;;9.27;4.57;;;;;;;6.04;90.19;99450.31;3482670;80;98919;-87
2022/02/20 14:58:47;;;;;;;10.83;4.97;;;;;;;5.98;90.57;99434.04;3491492;82;98323;-86
2022/02/20 15:03:48;;;;;;;12.80;4.97;;;;;;;5.98;91.20;99419.58;3493725;82;98232;-86
2022/02/20 15:08:49;;;;;;;10.35;4.50;;;;;;;5.95;91.40;99423.84;3466322;82;99777;-85
2022/02/20 15:13:51;;;;;;;12.58;5.22;;;;;;;5.94;91.78;99403.16;3476838;82;98562;-85
2022/02/20 15:18:55;;;;;;;15.00;6.47;;;;;;;5.94;92.32;99387.38;3485880;82;98575;-87
2022/02/20 15:23:57;;;;;;;20.60;8.30;;;;;;;5.95;92.56;99375.28;3495171;80;98897;-86
2022/02/20 15:28:59;;;;;;;16.90;7.87;;;;;;;5.93;93.19;99366.09;3453598;83;98942;-86
2022/02/20 15:34:00;;;;;;;16.15;8.18;;;;;;;5.90;94.10;99364.69;3480819;83;31051;-86
2022/02/20 15:39:01;;;;;;;16.83;8.73;;;;;;;5.83;94.89;99343.54;3412698;84;98523;-85
2022/02/20 15:44:03;;;;;;;21.45;10.53;;;;;;;5.76;95.60;99344.80;3423359;83;98584;-86
2022/02/20 15:49:05;;;;;;;19.03;9.43;;;;;;;5.73;97.08;99340.06;3416472;83;98743;-85
2022/02/20 15:54:07;;;;;;;21.83;9.40;;;;;;;5.67;97.29;99333.95;3427507;83;98518;-85
2022/02/20 15:59:08;;;;;;;17.32;7.22;;;;;;;5.61;98.41;99324.48;3413449;83;98752;-85
2022/02/20 16:04:09;;;;;;;10.70;6.10;;;;;;;5.52;98.45;99317.95;3427756;83;34906;-85
2022/02/20 16:09:10;;;;;;;13.50;6.63;;;;;;;5.45;98.53;99305.58;3414971;83;98758;-84
2022/02/20 16:14:13;;;;;;;14.23;6.13;;;;;;;5.39;99.17;99285.80;3406526;84;98864;-85
2022/02/20 16:19:13;;;;;;;16.10;7.60;;;;;;;5.33;100.00;99263.53;3418640;84;98930;-86
2022/02/20 16:24:14;;;;;;;15.50;8.27;;;;;;;5.29;100.00;99259.20;3422924;84;98803;-86
2022/02/20 16:29:16;;;;;;;18.13;8.57;;;;;;;5.26;100.00;99240.27;3416777;81;99812;-84
2022/02/20 16:34:17;;;;;;;17.70;8.00;;;;;;;5.25;100.00;99232.45;3423493;84;34883;-86
2022/02/20 16:39:19;;;;;;;15.40;8.03;;;;;;;5.23;100.00;99218.41;3418994;83;98475;-87
2022/02/20 16:44:21;;;;;;;17.47;8.97;;;;;;;5.23;100.00;99200.68;3424165;84;98856;-86
2022/02/20 16:49:24;;;;;;;16.48;8.95;;;;;;;5.22;100.00;99190.33;3415921;84;98663;-86
2022/02/20 16:54:27;;;;;;;21.87;11.15;;;;;;;5.23;100.00;99179.63;3425991;83;98994;-86
2022/02/20 16:59:27;;;;;;;14.93;7.22;;;;;;;5.25;100.00;99166.39;3417695;83;98985;-85
2022/02/20 17:04:28;;;;;;;16.47;7.40;;;;;;;5.28;100.00;99156.11;3421868;84;34879;-85
2022/02/20 17:09:29;;;;;;;17.32;6.47;;;;;;;5.32;100.00;99158.31;3416436;84;98538;-83
2022/02/20 17:14:33;;;;;;;16.77;6.77;;;;;;;5.35;100.00;99144.51;3425522;84;97644;-88
2022/02/20 17:19:35;;;;;;;20.47;7.97;;;;;;;5.38;100.00;99132.27;3415487;84;99181;-85
2022/02/20 17:24:36;;;;;;;15.65;8.48;;;;;;;5.43;100.00;99133.86;3423906;83;98764;-85
2022/02/20 17:29:38;;;;;;;14.33;6.87;;;;;;;5.45;100.00;99116.56;3391363;84;99031;-84
2022/02/20 17:34:44;;;;;;;17.73;8.33;;;;;;;5.48;100.00;99108.41;3426573;84;26434;-86
2022/02/20 17:39:45;;;;;;;18.73;8.75;;;;;;;5.54;100.00;99102.02;3417491;81;98498;-86
2022/02/20 17:44:46;;;;;;;17.47;8.83;;;;;;;5.55;100.00;99102.22;3425531;83;98770;-86
2022/02/20 17:49:47;;;;;;;19.37;8.47;;;;;;;5.58;100.00;99086.47;3398387;84;99062;-85
2022/02/20 17:54:48;;;;;;;14.30;7.60;;;;;;;5.61;100.00;99083.77;3425136;84;98698;-82
2022/02/20 17:59:49;;;;;;;17.67;7.67;;;;;;;5.66;100.00;99077.97;3444926;81;98608;-84
2022/02/20 18:04:51;;;;;;;16.47;7.03;;;;;;;5.71;100.00;99069.44;3478301;84;34915;-84
2022/02/20 18:09:52;;;;;;;14.63;6.67;;;;;;;5.76;100.00;99062.83;3464921;82;98632;-83
2022/02/20 18:14:53;;;;;;;13.37;6.43;;;;;;;5.80;100.00;99049.47;3472103;82;98533;-84
2022/02/20 18:19:54;;;;;;;15.13;7.00;;;;;;;5.85;100.00;99042.87;3445706;83;98629;-83
2022/02/20 18:24:55;;;;;;;14.27;7.10;;;;;;;5.90;100.00;99038.42;3482656;82;99079;-83
2022/02/20 18:29:55;;;;;;;13.90;6.57;;;;;;;5.93;100.00;99030.82;3470758;82;98727;-83
2022/02/20 18:34:57;;;;;;;13.35;6.47;;;;;;;5.97;100.00;99025.60;3486091;83;98645;-85
2022/02/20 18:39:58;;;;;;;13.88;6.85;;;;;;;6.02;100.00;99013.53;3489682;82;98743;-84
2022/02/20 18:44:59;;;;;;;17.23;6.80;;;;;;;6.05;100.00;99005.95;3472696;83;99000;-84
2022/02/20 18:50:00;;;;;;;14.03;5.93;;;;;;;6.11;100.00;98991.54;3467123;83;98767;-83
2022/02/20 18:55:03;;;;;;;12.23;5.50;;;;;;;6.16;100.00;98993.91;3445466;83;99004;-84
2022/02/20 19:00:09;;;;;;;11.73;5.60;;;;;;;6.22;100.00;98984.78;3464440;83;98980;-84
2022/02/20 19:05:10;;;;;;;11.83;5.13;;;;;;;6.25;100.00;98968.41;3449943;83;98734;-84
2022/02/20 19:10:12;;;;;;;13.90;6.20;;;;;;;6.33;100.00;98955.56;3467594;82;98384;-82
2022/02/20 19:15:15;;;;;;;14.95;5.47;;;;;;;6.39;100.00;98951.30;3474133;82;98499;-85
2022/02/20 19:20:20;;;;;;;9.67;4.63;;;;;;;6.46;100.00;98943.12;3445745;83;98169;-84
2022/02/20 19:25:21;;;;;;;10.68;4.50;;;;;;;6.51;100.00;98937.28;3458157;83;98617;-84
2022/02/20 19:30:24;;;;;;;12.23;4.70;;;;;;;6.57;100.00;98928.33;3461071;83;98731;-84
2022/02/20 19:35:25;;;;;;;11.65;4.70;;;;;;;6.60;100.00;98912.51;3471897;81;97950;-83
2022/02/20 19:40:26;;;;;;;9.17;3.93;;;;;;;6.66;100.00;98917.03;3467760;83;98775;-83
2022/02/20 19:45:29;;;;;;;9.63;4.10;;;;;;;6.73;100.00;98915.67;3469872;84;98255;-83
2022/02/20 19:50:30;;;;;;;10.63;4.83;;;;;;;6.79;100.00;98900.44;3464764;79;98278;-85
2022/02/20 19:55:34;;;;;;;9.50;3.40;;;;;;;6.84;100.00;98909.06;3453311;84;97676;-86
2022/02/20 20:00:35;;;;;;;9.88;3.92;;;;;;;6.89;100.00;98896.37;3475807;84;98224;-84
2022/02/20 20:05:38;;;;;;;8.80;3.10;;;;;;;6.96;100.00;98884.64;3475116;84;97587;-85
2022/02/20 20:10:41;;;;;;;9.30;4.12;;;;;;;7.00;100.00;98869.02;3455991;82;98262;-84
2022/02/20 20:15:44;;;;;;;8.90;3.60;;;;;;;7.05;100.00;98855.75;3470338;82;98342;-84
2022/02/20 20:20:44;;;;;;;8.88;3.12;;;;;;;7.09;100.00;98857.11;3470031;84;98050;-85
2022/02/20 20:25:47;;;;;;;7.77;2.50;;;;;;;7.14;100.00;98856.72;3448672;84;98518;-83
2022/02/20 20:30:48;;;;;;;10.68;3.55;;;;;;;7.18;100.00;98854.17;3459783;83;98926;-86
2022/02/20 20:35:49;;;;;;;12.53;4.70;;;;;;;7.23;100.00;98835.99;3461478;82;98726;-85
2022/02/20 20:40:51;;;;;;;10.47;3.73;;;;;;;7.23;100.00;98835.99;3456827;83;98433;-84
2022/02/20 20:45:52;;;;;;;8.47;2.90;;;;;;;7.22;100.00;98834.44;3460638;83;98596;-86
2022/02/20 20:50:53;;;;;;;9.03;2.60;;;;;;;7.22;100.00;98839.11;3463888;83;98628;-85
2022/02/20 20:55:54;;;;;;;8.83;3.70;;;;;;;7.24;100.00;98827.18;3464372;82;97633;-85
2022/02/20 21:00:57;;;;;;;8.70;2.90;;;;;;;7.25;100.00;98813.72;3452776;82;98731;-86
2022/02/20 21:05:57;;;;;;;7.90;3.20;;;;;;;7.26;100.00;98798.86;3454658;80;98805;-85
2022/02/20 21:10:58;;;;;;;8.07;2.83;;;;;;;7.28;100.00;98801.39;3458730;83;98298;-87
2022/02/20 21:15:59;;;;;;;7.50;3.10;;;;;;;7.29;100.00;98799.42;3474604;82;98553;-90
2022/02/20 21:21:00;;;;;;;9.23;2.90;;;;;;;7.27;100.00;98786.16;3443471;83;98628;-91
2022/02/20 21:26:05;;;;;;;6.73;2.60;;;;;;;7.27;100.00;98773.05;3465467;83;98758;-90
2022/02/20 21:31:06;;;;;;;7.33;2.87;;;;;;;7.26;100.00;98757.82;3457780;83;98814;-89
2022/02/20 21:36:07;;;;;;;8.63;3.70;;;;;;;7.22;100.00;98749.63;3469966;82;98782;-89
2022/02/20 21:41:08;;;;;;;7.90;3.13;;;;;;;7.20;100.00;98738.28;3475573;82;98745;-89
2022/02/20 21:46:09;;;;;;;10.57;3.50;;;;;;;7.16;100.00;98738.11;3485902;83;32487;-89
2022/02/20 21:51:11;;;;;;;7.07;2.63;;;;;;;7.13;100.00;98717.79;3448539;83;98539;-89
2022/02/20 21:56:12;;;;;;;9.33;3.47;;;;;;;7.13;100.00;98707.42;3474192;82;98867;-89
2022/02/20 22:01:15;;;;;;;10.33;3.60;;;;;;;7.09;100.00;98710.17;3473797;82;98930;-91
2022/02/20 22:06:15;;;;;;;7.60;2.73;;;;;;;7.09;100.00;98692.39;3485083;82;99119;-88
2022/02/20 22:11:17;;;;;;;8.13;3.07;;;;;;;7.06;100.00;98694.57;3472543;83;98829;-88
2022/02/20 22:16:17;;;;;;;9.17;3.30;;;;;;;7.04;100.00;98691.43;3483476;82;25859;-86
2022/02/20 22:21:18;;;;;;;7.90;3.30;;;;;;;7.04;100.00;98660.58;3473174;83;98404;-89
2022/02/20 22:26:19;;;;;;;6.70;2.80;;;;;;;7.02;100.00;98644.56;3484550;82;99040;-87
2022/02/20 22:31:20;;;;;;;7.25;3.08;;;;;;;7.02;100.00;98639.09;3483012;82;98816;-86
2022/02/20 22:36:23;;;;;;;7.93;3.70;;;;;;;7.02;100.00;98634.20;3479541;83;98928;-89
2022/02/20 22:41:24;;;;;;;6.37;2.90;;;;;;;7.03;100.00;98627.58;3472250;82;98403;-87
2022/02/20 22:46:25;;;;;;;6.83;2.63;;;;;;;7.05;100.00;98609.59;3477394;82;32796;-88
2022/02/20 22:51:26;;;;;;;10.03;3.17;;;;;;;7.06;100.00;98605.69;3455965;84;98718;-87
2022/02/20 22:56:26;;;;;;;7.23;2.33;;;;;;;7.07;100.00;98590.83;3486091;81;98855;-90
2022/02/20 23:01:27;;;;;;;7.83;3.17;;;;;;;7.07;100.00;98577.15;3465234;83;98729;-89
2022/02/20 23:06:28;;;;;;;6.22;2.40;;;;;;;7.09;100.00;98569.92;3475845;84;98814;-89
2022/02/20 23:11:29;;;;;;;7.97;2.43;;;;;;;7.10;100.00;98554.45;3461882;84;98807;-87
2022/02/20 23:16:30;;;;;;;6.77;2.57;;;;;;;7.11;100.00;98547.83;3452855;84;26486;-88
2022/02/20 23:21:32;;;;;;;6.00;2.30;;;;;;;7.15;100.00;98539.60;3487170;82;98378;-89
2022/02/20 23:26:34;;;;;;;5.37;2.23;;;;;;;7.18;100.00;98523.74;3484951;82;98745;-88
2022/02/20 23:31:35;;;;;;;6.30;2.30;;;;;;;7.20;100.00;98513.20;3477977;83;99120;-88
2022/02/20 23:36:36;;;;;;;6.17;2.37;;;;;;;7.21;100.00;98505.94;3480352;83;98765;-89
2022/02/20 23:41:39;;;;;;;6.07;2.57;;;;;;;7.23;100.00;98488.55;3479986;82;98531;-88
2022/02/20 23:46:40;;;;;;;5.77;2.33;;;;;;;7.24;100.00;98482.47;3483899;83;29606;-91